Time;durP1;ratioP1;P1;durP2;ratioP2;P2;SDS_P1;SDS_P2;PMS_P1;PMS_P2;Temp;Humidity;BMP_temperature;BMP_pressure;BME280_temperature;BME280_humidity;BME280_pressure;Samples;Min_cycle;Max_cycle;Signal;HPM_P1;HPM_P2
2022/03/06 00:00:45;;;;;;;0.00;0.00;;;6.20;99.90;;;;;;5031351;28;20029;-60
2022/03/06 00:03:10;;;;;;;0.00;0.00;;;6.20;99.90;;;;;;5031350;28;20064;-61
2022/03/06 00:05:36;;;;;;;0.00;0.00;;;6.20;99.90;;;;;;5022678;28;20415;-61
2022/03/06 00:08:02;;;;;;;0.00;0.00;;;6.20;99.90;;;;;;5028327;28;20139;-61
2022/03/06 00:10:29;;;;;;;0.00;0.00;;;6.20;99.90;;;;;;5031984;28;20109;-61
2022/03/06 00:12:56;;;;;;;0.00;0.00;;;6.20;99.90;;;;;;5030786;28;20395;-61
2022/03/06 00:15:22;;;;;;;;;;;6.20;99.90;;;;;;5030974;28;20029;-61
2022/03/06 00:17:49;;;;;;;0.00;0.00;;;6.20;99.90;;;;;;5033419;28;20016;-61
2022/03/06 00:20:15;;;;;;;0.00;0.00;;;6.20;99.90;;;;;;5024952;28;20038;-61
2022/03/06 00:22:40;;;;;;;;;;;6.20;99.90;;;;;;5032671;28;20037;-61
2022/03/06 00:25:06;;;;;;;0.00;0.00;;;6.30;99.90;;;;;;5024160;28;19909;-61
2022/03/06 00:27:32;;;;;;;;;;;6.30;99.90;;;;;;5022673;28;20130;-61
2022/03/06 00:29:58;;;;;;;0.00;0.00;;;6.30;99.90;;;;;;5019438;28;19954;-60
2022/03/06 00:32:25;;;;;;;0.00;0.00;;;6.30;99.90;;;;;;5031887;28;20080;-61
2022/03/06 00:34:50;;;;;;;0.00;0.00;;;6.20;99.90;;;;;;5025601;28;20041;-60
2022/03/06 00:37:16;;;;;;;0.00;0.00;;;6.10;99.90;;;;;;5028872;28;20047;-61
2022/03/06 00:39:43;;;;;;;0.00;0.00;;;6.00;99.90;;;;;;5014724;28;20029;-61
2022/03/06 00:42:09;;;;;;;0.00;0.00;;;6.00;99.90;;;;;;5031808;28;20036;-61
2022/03/06 00:44:35;;;;;;;0.00;0.00;;;6.00;99.90;;;;;;5031968;28;20395;-60
2022/03/06 00:47:01;;;;;;;;;;;6.00;99.90;;;;;;5030907;28;20025;-61
2022/03/06 00:49:27;;;;;;;0.00;0.00;;;5.90;99.90;;;;;;5031900;28;19932;-60
2022/03/06 00:51:53;;;;;;;0.00;0.00;;;6.00;99.90;;;;;;5019500;28;20160;-62
2022/03/06 00:54:19;;;;;;;0.00;0.00;;;6.00;99.90;;;;;;5030297;28;20036;-61
2022/03/06 00:56:46;;;;;;;0.00;0.00;;;6.10;99.90;;;;;;5029937;28;20550;-61
2022/03/06 00:59:12;;;;;;;0.00;0.00;;;6.10;99.90;;;;;;5031619;28;20029;-62
2022/03/06 01:01:37;;;;;;;0.00;0.00;;;6.10;99.90;;;;;;5030320;28;20025;-61
2022/03/06 01:04:03;;;;;;;0.00;0.00;;;6.10;99.90;;;;;;5030550;28;20037;-62
2022/03/06 01:06:29;;;;;;;0.00;0.00;;;6.20;99.90;;;;;;5026443;28;20124;-61
2022/03/06 01:08:55;;;;;;;0.00;0.00;;;6.20;99.90;;;;;;5030082;28;20108;-60
2022/03/06 01:11:21;;;;;;;0.00;0.00;;;6.30;99.90;;;;;;5030351;28;20042;-61
2022/03/06 01:13:46;;;;;;;0.00;0.00;;;6.30;99.90;;;;;;5030170;28;20033;-61
2022/03/06 01:16:13;;;;;;;0.00;0.00;;;6.20;99.90;;;;;;5029605;28;20414;-61
2022/03/06 01:18:38;;;;;;;0.00;0.00;;;6.30;99.90;;;;;;5029492;28;20511;-60
2022/03/06 01:21:04;;;;;;;0.00;0.00;;;6.30;99.90;;;;;;5033301;28;20038;-60
2022/03/06 01:23:30;;;;;;;0.00;0.00;;;6.20;99.90;;;;;;5033741;28;20087;-61
2022/03/06 01:25:56;;;;;;;0.00;0.00;;;6.30;99.90;;;;;;5034940;28;20368;-60
2022/03/06 01:28:21;;;;;;;0.00;0.00;;;6.30;99.90;;;;;;5034076;28;20053;-60
2022/03/06 01:30:47;;;;;;;0.00;0.00;;;6.20;99.90;;;;;;5024387;28;20051;-61
2022/03/06 01:33:13;;;;;;;0.00;0.00;;;6.30;99.90;;;;;;5054478;28;20037;-61
2022/03/06 01:35:39;;;;;;;0.00;0.00;;;6.30;99.90;;;;;;5053602;28;20454;-61
2022/03/06 01:38:04;;;;;;;0.00;0.00;;;6.30;99.90;;;;;;5054281;28;20037;-61
2022/03/06 01:40:30;;;;;;;0.00;0.00;;;6.30;99.90;;;;;;5052693;28;20322;-61
2022/03/06 01:42:56;;;;;;;0.00;0.00;;;6.20;99.90;;;;;;5047554;28;20132;-61
2022/03/06 01:45:23;;;;;;;0.00;0.00;;;6.10;99.90;;;;;;5054858;28;20021;-60
2022/03/06 01:47:54;;;;;;;0.00;0.00;;;6.10;99.90;;;;;;5053114;28;20107;-62
2022/03/06 01:50:23;;;;;;;0.00;0.00;;;6.10;99.90;;;;;;5054359;28;20510;-61
2022/03/06 01:52:50;;;;;;;0.00;0.00;;;6.10;99.90;;;;;;5054038;28;20021;-61
2022/03/06 01:55:18;;;;;;;0.00;0.00;;;6.20;99.90;;;;;;5053539;28;20020;-61
2022/03/06 01:57:45;;;;;;;0.00;0.00;;;6.10;99.90;;;;;;5053529;28;20025;-62
2022/03/06 02:00:16;;;;;;;0.00;0.00;;;6.10;99.90;;;;;;5053707;28;20029;-60
2022/03/06 02:02:43;;;;;;;0.00;0.00;;;6.10;99.90;;;;;;5053784;28;20055;-61
2022/03/06 02:05:09;;;;;;;0.00;0.00;;;6.10;99.90;;;;;;5054228;28;20027;-60
2022/03/06 02:07:35;;;;;;;0.00;0.00;;;6.10;99.90;;;;;;5053307;28;20033;-61
2022/03/06 02:10:02;;;;;;;0.00;0.00;;;6.10;99.90;;;;;;5053686;28;20548;-61
2022/03/06 02:12:28;;;;;;;0.00;0.00;;;6.10;99.90;;;;;;5056212;28;20108;-62
2022/03/06 02:14:57;;;;;;;0.00;0.00;;;6.10;99.90;;;;;;5052653;28;20025;-60
2022/03/06 02:17:24;;;;;;;0.00;0.00;;;6.00;99.90;;;;;;5051183;28;20044;-61
2022/03/06 02:19:53;;;;;;;0.00;0.00;;;6.00;99.90;;;;;;5053953;28;20025;-61
2022/03/06 02:22:19;;;;;;;0.00;0.00;;;5.90;99.90;;;;;;5049244;28;20060;-61
2022/03/06 02:24:45;;;;;;;0.00;0.00;;;5.90;99.90;;;;;;5054018;28;20059;-60
2022/03/06 02:27:11;;;;;;;0.00;0.00;;;5.90;99.90;;;;;;5051347;28;21484;-62
2022/03/06 02:29:40;;;;;;;0.00;0.00;;;5.90;99.90;;;;;;5052400;28;20513;-61
2022/03/06 02:32:09;;;;;;;0.00;0.00;;;5.90;99.90;;;;;;5037157;28;20103;-63
2022/03/06 02:34:36;;;;;;;0.00;0.00;;;5.90;99.90;;;;;;5014708;28;20041;-61
2022/03/06 02:37:02;;;;;;;0.00;0.00;;;6.00;99.90;;;;;;5032902;28;20025;-61
2022/03/06 02:39:28;;;;;;;0.00;0.00;;;6.00;99.90;;;;;;5027721;28;20025;-61
2022/03/06 02:41:56;;;;;;;0.00;0.00;;;6.00;99.90;;;;;;5022816;28;20071;-63
2022/03/06 02:44:22;;;;;;;0.00;0.00;;;6.00;99.90;;;;;;5029524;28;20126;-62
2022/03/06 02:46:51;;;;;;;0.00;0.00;;;5.80;99.90;;;;;;5030032;28;20119;-60
2022/03/06 02:49:18;;;;;;;0.00;0.00;;;5.70;99.90;;;;;;5031592;28;20228;-61
2022/03/06 02:51:45;;;;;;;0.00;0.00;;;5.60;99.90;;;;;;5033734;28;20501;-61
2022/03/06 02:54:14;;;;;;;0.00;0.00;;;5.60;99.90;;;;;;5032648;28;20112;-61
2022/03/06 02:56:40;;;;;;;0.00;0.00;;;5.60;99.90;;;;;;5033408;28;20018;-60
2022/03/06 02:59:07;;;;;;;0.00;0.00;;;5.60;99.90;;;;;;5033124;28;20078;-61
2022/03/06 03:01:41;;;;;;;0.00;0.00;;;5.60;99.90;;;;;;5013855;28;20037;-61
2022/03/06 03:04:09;;;;;;;0.00;0.00;;;5.60;99.90;;;;;;5021648;28;20372;-61
2022/03/06 03:06:35;;;;;;;0.00;0.00;;;5.60;99.90;;;;;;5013549;28;20061;-62
2022/03/06 03:09:04;;;;;;;0.00;0.00;;;5.60;99.90;;;;;;5010631;28;20029;-60
2022/03/06 03:11:31;;;;;;;0.00;0.00;;;5.60;99.90;;;;;;5033052;28;20026;-61
2022/03/06 03:14:01;;;;;;;0.00;0.00;;;5.60;99.90;;;;;;5031857;28;20607;-62
2022/03/06 03:16:27;;;;;;;0.00;0.00;;;5.70;99.90;;;;;;5029867;28;20121;-62
2022/03/06 03:18:53;;;;;;;0.00;0.00;;;5.70;99.90;;;;;;5033397;28;20476;-61
2022/03/06 03:21:19;;;;;;;0.00;0.00;;;5.60;99.90;;;;;;5032372;28;20030;-62
2022/03/06 03:23:45;;;;;;;0.00;0.00;;;5.60;99.90;;;;;;5012484;28;20022;-62
2022/03/06 03:26:11;;;;;;;0.00;0.00;;;5.60;99.90;;;;;;5033590;28;20084;-61
2022/03/06 03:28:36;;;;;;;0.00;0.00;;;5.50;99.90;;;;;;5013861;28;20038;-61
2022/03/06 03:31:02;;;;;;;0.00;0.00;;;5.50;99.90;;;;;;5034107;28;20039;-62
2022/03/06 03:33:28;;;;;;;0.00;0.00;;;5.50;99.90;;;;;;5033981;28;20045;-62
2022/03/06 03:35:54;;;;;;;0.00;0.00;;;5.50;99.90;;;;;;5037013;28;20013;-61
2022/03/06 03:38:19;;;;;;;0.00;0.00;;;5.40;99.90;;;;;;5055658;28;20390;-60
2022/03/06 03:40:47;;;;;;;0.00;0.00;;;5.40;99.90;;;;;;5031739;28;20057;-62
2022/03/06 03:43:12;;;;;;;0.00;0.00;;;5.50;99.90;;;;;;5041282;28;20025;-62
2022/03/06 03:45:38;;;;;;;0.00;0.00;;;5.50;99.90;;;;;;5043858;28;20042;-60
2022/03/06 03:48:04;;;;;;;0.00;0.00;;;5.30;99.90;;;;;;5042913;28;20115;-61
2022/03/06 03:50:30;;;;;;;0.00;0.00;;;5.10;99.90;;;;;;5021775;28;20517;-61
2022/03/06 03:52:55;;;;;;;;;;;5.10;99.90;;;;;;5036757;28;20042;-61
2022/03/06 03:55:21;;;;;;;0.00;0.00;;;5.00;99.90;;;;;;5038279;28;20248;-66
2022/03/06 03:57:47;;;;;;;0.00;0.00;;;5.00;99.90;;;;;;5034137;28;20574;-61
2022/03/06 04:00:13;;;;;;;0.00;0.00;;;4.90;99.90;;;;;;5037379;28;20422;-61
2022/03/06 04:02:38;;;;;;;0.00;0.00;;;4.90;99.90;;;;;;5038337;28;20028;-60
2022/03/06 04:05:05;;;;;;;0.00;0.00;;;5.00;99.90;;;;;;5031631;28;20022;-61
2022/03/06 04:07:30;;;;;;;0.00;0.00;;;4.90;99.90;;;;;;5037111;28;20033;-61
2022/03/06 04:09:56;;;;;;;0.00;0.00;;;4.90;99.90;;;;;;5021304;28;20032;-61
2022/03/06 04:12:22;;;;;;;0.00;0.00;;;4.90;99.90;;;;;;5047071;28;20033;-61
2022/03/06 04:14:48;;;;;;;0.00;0.00;;;4.90;99.90;;;;;;5037408;28;20036;-61
2022/03/06 04:17:13;;;;;;;0.00;0.00;;;4.90;99.90;;;;;;5007776;28;20036;-62
2022/03/06 04:19:39;;;;;;;0.00;0.00;;;4.90;99.90;;;;;;5042210;28;20037;-60
2022/03/06 04:22:05;;;;;;;0.00;0.00;;;4.90;99.90;;;;;;5037712;28;20041;-62
2022/03/06 04:24:31;;;;;;;0.00;0.00;;;5.00;99.90;;;;;;5040235;28;20423;-60
2022/03/06 04:26:56;;;;;;;0.00;0.00;;;5.00;99.90;;;;;;5036289;28;20030;-62
2022/03/06 04:29:22;;;;;;;0.00;0.00;;;5.00;99.90;;;;;;5018728;28;20021;-61
2022/03/06 04:31:48;;;;;;;0.00;0.00;;;4.90;99.90;;;;;;5029693;28;20073;-61
2022/03/06 04:34:13;;;;;;;0.00;0.00;;;4.90;99.90;;;;;;5026872;28;20502;-61
2022/03/06 04:36:40;;;;;;;0.00;0.00;;;4.90;99.90;;;;;;5015545;28;20503;-61
2022/03/06 04:39:05;;;;;;;;;;;4.90;99.90;;;;;;5014368;28;20053;-61
2022/03/06 04:41:32;;;;;;;0.00;0.00;;;4.90;99.90;;;;;;5031412;28;19959;-62
2022/03/06 04:43:57;;;;;;;;;;;4.90;99.90;;;;;;5025731;28;20120;-60
2022/03/06 04:46:24;;;;;;;0.00;0.00;;;4.80;99.90;;;;;;5006635;28;20000;-61
2022/03/06 04:48:50;;;;;;;0.00;0.00;;;4.90;99.90;;;;;;5029354;28;20661;-60
2022/03/06 04:51:16;;;;;;;0.00;0.00;;;4.80;99.90;;;;;;5035719;28;20036;-61
2022/03/06 04:53:42;;;;;;;0.00;0.00;;;4.80;99.90;;;;;;5016961;28;20116;-62
2022/03/06 04:56:08;;;;;;;0.00;0.00;;;4.90;99.90;;;;;;5034915;28;20021;-62
2022/03/06 04:58:34;;;;;;;;;;;4.90;99.90;;;;;;5037340;28;20034;-60
2022/03/06 05:01:00;;;;;;;0.00;0.00;;;4.80;99.90;;;;;;5032612;28;20255;-61
2022/03/06 05:03:26;;;;;;;0.00;0.00;;;4.80;99.90;;;;;;5019953;28;20060;-60
2022/03/06 05:05:52;;;;;;;0.00;0.00;;;4.90;99.90;;;;;;5026320;28;20034;-64
2022/03/06 05:08:18;;;;;;;0.00;0.00;;;4.90;99.90;;;;;;5014825;28;20025;-62
2022/03/06 05:10:43;;;;;;;0.00;0.00;;;4.90;99.90;;;;;;5025307;28;20467;-62
2022/03/06 05:13:09;;;;;;;0.00;0.00;;;4.90;99.90;;;;;;5030300;28;20033;-63
2022/03/06 05:15:35;;;;;;;0.00;0.00;;;4.90;99.90;;;;;;5030473;28;20025;-63
2022/03/06 05:18:02;;;;;;;0.00;0.00;;;5.00;99.90;;;;;;5011982;28;20029;-61
2022/03/06 05:20:27;;;;;;;;;;;4.90;99.90;;;;;;5031219;28;20040;-61
2022/03/06 05:22:54;;;;;;;0.00;0.00;;;4.90;99.90;;;;;;5032738;28;19909;-65
2022/03/06 05:25:19;;;;;;;0.00;0.00;;;5.00;99.90;;;;;;5010353;28;20026;-61
2022/03/06 05:27:45;;;;;;;0.00;0.00;;;5.00;99.90;;;;;;5015883;28;20324;-61
2022/03/06 05:30:13;;;;;;;0.00;0.00;;;5.00;99.90;;;;;;5033518;28;20120;-61
2022/03/06 05:32:39;;;;;;;0.00;0.00;;;4.90;99.90;;;;;;5029741;28;20049;-62
2022/03/06 05:35:05;;;;;;;0.00;0.00;;;5.00;99.90;;;;;;5025285;28;20387;-61
2022/03/06 05:37:31;;;;;;;0.00;0.00;;;4.90;99.90;;;;;;5026496;28;20029;-61
2022/03/06 05:39:57;;;;;;;0.00;0.00;;;5.00;99.90;;;;;;5032635;28;20041;-60
2022/03/06 05:42:22;;;;;;;0.00;0.00;;;5.00;99.90;;;;;;5032456;28;20057;-60
2022/03/06 05:44:48;;;;;;;0.00;0.00;;;5.00;99.90;;;;;;5010859;28;20030;-60
2022/03/06 05:47:14;;;;;;;0.00;0.00;;;5.10;99.90;;;;;;5028268;28;20036;-64
2022/03/06 05:49:39;;;;;;;0.00;0.00;;;5.20;99.90;;;;;;5030619;28;20092;-61
2022/03/06 05:52:06;;;;;;;0.00;0.00;;;5.10;99.90;;;;;;5025101;28;20087;-60
2022/03/06 05:54:31;;;;;;;0.00;0.00;;;5.20;99.90;;;;;;5025642;28;20056;-60
2022/03/06 05:56:57;;;;;;;0.00;0.00;;;5.20;99.90;;;;;;5029309;28;20033;-62
2022/03/06 05:59:23;;;;;;;;;;;5.20;99.90;;;;;;5029488;28;20108;-61
2022/03/06 06:01:49;;;;;;;0.00;0.00;;;5.10;99.90;;;;;;5028746;28;19949;-60
2022/03/06 06:04:15;;;;;;;0.00;0.00;;;5.10;99.90;;;;;;5006317;28;20132;-61
2022/03/06 06:06:40;;;;;;;0.00;0.00;;;5.10;99.90;;;;;;5033323;28;20032;-60
2022/03/06 06:09:06;;;;;;;0.00;0.00;;;5.10;99.90;;;;;;5030369;28;20052;-61
2022/03/06 06:11:32;;;;;;;0.00;0.00;;;5.20;99.90;;;;;;5032246;28;20088;-61
2022/03/06 06:13:58;;;;;;;0.00;0.00;;;5.10;99.90;;;;;;5031596;28;20074;-62
2022/03/06 06:16:24;;;;;;;0.00;0.00;;;5.10;99.90;;;;;;5030748;28;20053;-61
2022/03/06 06:18:49;;;;;;;0.00;0.00;;;5.10;99.90;;;;;;5034070;28;20025;-61
2022/03/06 06:21:16;;;;;;;0.00;0.00;;;5.10;99.90;;;;;;5033141;28;20038;-62
2022/03/06 06:23:42;;;;;;;0.00;0.00;;;5.10;99.90;;;;;;5032082;28;20518;-61
2022/03/06 06:26:08;;;;;;;0.00;0.00;;;5.10;99.90;;;;;;5034245;28;20037;-64
2022/03/06 06:28:34;;;;;;;0.00;0.00;;;5.10;99.90;;;;;;5029568;28;20034;-62
2022/03/06 06:31:00;;;;;;;0.00;0.00;;;5.10;99.90;;;;;;5034106;28;20045;-62
2022/03/06 06:33:26;;;;;;;;;;;5.00;99.90;;;;;;5032476;28;20459;-61
2022/03/06 06:35:51;;;;;;;0.00;0.00;;;5.10;99.90;;;;;;5032779;28;19909;-60
2022/03/06 06:38:17;;;;;;;0.00;0.00;;;5.10;99.90;;;;;;5031055;28;20084;-62
2022/03/06 06:40:42;;;;;;;0.00;0.00;;;5.10;99.90;;;;;;5031370;28;20030;-61
2022/03/06 06:43:08;;;;;;;0.00;0.00;;;5.20;99.90;;;;;;5032970;28;20107;-61
2022/03/06 06:45:34;;;;;;;0.00;0.00;;;5.20;99.90;;;;;;5033210;28;20434;-62
2022/03/06 06:47:59;;;;;;;0.00;0.00;;;5.20;99.90;;;;;;5032421;28;20038;-60
2022/03/06 06:50:25;;;;;;;0.00;0.00;;;5.20;99.90;;;;;;5026133;28;20498;-61
2022/03/06 06:52:51;;;;;;;0.00;0.00;;;5.30;99.90;;;;;;5027286;28;20439;-61
2022/03/06 06:55:16;;;;;;;0.00;0.00;;;5.30;99.90;;;;;;5018819;28;20037;-62
2022/03/06 06:57:42;;;;;;;0.00;0.00;;;5.30;99.90;;;;;;5033885;28;20091;-61
2022/03/06 07:00:08;;;;;;;0.00;0.00;;;5.30;99.90;;;;;;5026483;28;20030;-62
2022/03/06 07:02:34;;;;;;;0.00;0.00;;;5.30;99.90;;;;;;5032804;28;20060;-61
2022/03/06 07:05:03;;;;;;;0.00;0.00;;;5.30;99.90;;;;;;5035631;28;20116;-61
2022/03/06 07:07:29;;;;;;;0.00;0.00;;;5.30;99.90;;;;;;5025020;28;20423;-61
2022/03/06 07:09:54;;;;;;;0.00;0.00;;;5.30;99.90;;;;;;5029906;28;20025;-62
2022/03/06 07:12:20;;;;;;;0.00;0.00;;;5.40;99.90;;;;;;5022704;28;20030;-62
2022/03/06 07:14:45;;;;;;;0.00;0.00;;;5.30;99.90;;;;;;5020171;28;20037;-61
2022/03/06 07:17:11;;;;;;;0.00;0.00;;;5.30;99.90;;;;;;5029548;28;20032;-62
2022/03/06 07:19:37;;;;;;;0.00;0.00;;;5.30;99.90;;;;;;5032087;28;20030;-60
2022/03/06 07:22:03;;;;;;;0.00;0.00;;;5.30;99.90;;;;;;5031004;28;20068;-61
2022/03/06 07:24:28;;;;;;;0.00;0.00;;;5.30;99.90;;;;;;5031200;28;20353;-61
2022/03/06 07:26:54;;;;;;;0.00;0.00;;;5.40;99.90;;;;;;5032903;28;20079;-62
2022/03/06 07:29:20;;;;;;;0.00;0.00;;;5.50;99.90;;;;;;5016108;28;20028;-61
2022/03/06 07:31:45;;;;;;;0.00;0.00;;;5.50;99.90;;;;;;5033107;28;20049;-61
2022/03/06 07:34:11;;;;;;;0.00;0.00;;;5.50;99.90;;;;;;5026488;28;20034;-61
2022/03/06 07:36:37;;;;;;;0.00;0.00;;;5.50;99.90;;;;;;5027870;28;20026;-61
2022/03/06 07:39:03;;;;;;;0.00;0.00;;;5.50;99.90;;;;;;5031222;28;20352;-61
2022/03/06 07:41:28;;;;;;;0.00;0.00;;;5.40;99.90;;;;;;5029211;28;20033;-61
2022/03/06 07:43:54;;;;;;;0.00;0.00;;;5.50;99.90;;;;;;5019104;28;20030;-62
2022/03/06 07:46:20;;;;;;;0.00;0.00;;;5.50;99.90;;;;;;5030883;28;20057;-61
2022/03/06 07:48:45;;;;;;;0.00;0.00;;;5.50;99.90;;;;;;5010390;28;20017;-61
2022/03/06 07:51:11;;;;;;;0.00;0.00;;;5.60;99.90;;;;;;5028753;28;20025;-61
2022/03/06 07:53:37;;;;;;;0.00;0.00;;;5.60;99.90;;;;;;5012852;28;20037;-61
2022/03/06 07:56:03;;;;;;;0.00;0.00;;;5.60;99.90;;;;;;5031600;28;20121;-61
2022/03/06 07:58:28;;;;;;;0.00;0.00;;;5.50;99.90;;;;;;5032056;28;20069;-62
2022/03/06 08:00:54;;;;;;;0.00;0.00;;;5.50;99.90;;;;;;5014267;28;20029;-61
2022/03/06 08:03:20;;;;;;;0.00;0.00;;;5.50;99.90;;;;;;5032832;28;20099;-61
2022/03/06 08:05:45;;;;;;;0.00;0.00;;;5.50;99.90;;;;;;5030701;28;20111;-62
2022/03/06 08:08:11;;;;;;;0.00;0.00;;;5.60;99.90;;;;;;5029308;28;20022;-62
2022/03/06 08:10:37;;;;;;;0.00;0.00;;;5.60;99.90;;;;;;5031692;28;20033;-61
2022/03/06 08:13:02;;;;;;;0.00;0.00;;;5.70;99.90;;;;;;5031734;28;20108;-62
2022/03/06 08:15:28;;;;;;;0.00;0.00;;;5.70;99.90;;;;;;5031535;28;20022;-62
2022/03/06 08:17:54;;;;;;;0.00;0.00;;;5.70;99.90;;;;;;5032614;28;20034;-61
2022/03/06 08:20:20;;;;;;;0.00;0.00;;;5.50;99.90;;;;;;5027101;28;20120;-61
2022/03/06 08:22:45;;;;;;;;;;;5.50;99.90;;;;;;5032375;28;20072;-62
2022/03/06 08:25:11;;;;;;;0.00;0.00;;;5.70;99.90;;;;;;5033640;28;19909;-61
2022/03/06 08:27:37;;;;;;;0.00;0.00;;;5.60;99.90;;;;;;5016065;28;20030;-61
2022/03/06 08:30:04;;;;;;;;;;;5.60;99.90;;;;;;5030924;28;20052;-62
2022/03/06 08:32:29;;;;;;;0.00;0.00;;;5.60;99.90;;;;;;5036031;28;19917;-61
2022/03/06 08:34:55;;;;;;;0.00;0.00;;;5.50;99.90;;;;;;5034848;28;20399;-61
2022/03/06 08:37:21;;;;;;;0.00;0.00;;;5.60;99.90;;;;;;5034439;28;20427;-61
2022/03/06 08:39:48;;;;;;;0.00;0.00;;;5.60;99.90;;;;;;5037333;28;20025;-61
2022/03/06 08:42:15;;;;;;;0.00;0.00;;;5.50;99.90;;;;;;5034043;28;20033;-61
2022/03/06 08:44:40;;;;;;;0.00;0.00;;;5.60;99.90;;;;;;5037039;28;20057;-61
2022/03/06 08:47:06;;;;;;;0.00;0.00;;;5.60;99.90;;;;;;5016631;28;20050;-61
2022/03/06 08:49:32;;;;;;;;;;;5.70;99.90;;;;;;5012309;28;20038;-63
2022/03/06 08:51:58;;;;;;;0.00;0.00;;;5.80;99.90;;;;;;5024819;28;19962;-64
2022/03/06 08:54:24;;;;;;;0.00;0.00;;;5.80;99.90;;;;;;5033101;28;20407;-61
2022/03/06 08:56:50;;;;;;;;;;;6.00;99.90;;;;;;5034746;28;20498;-62
2022/03/06 08:59:16;;;;;;;0.00;0.00;;;6.00;99.90;;;;;;5034252;28;20038;-61
2022/03/06 09:01:41;;;;;;;0.00;0.00;;;6.10;99.90;;;;;;5031857;28;20064;-61
2022/03/06 09:04:07;;;;;;;0.00;0.00;;;6.00;99.90;;;;;;5035078;28;20360;-61
2022/03/06 09:06:33;;;;;;;0.00;0.00;;;6.10;99.90;;;;;;5034880;28;20025;-61
2022/03/06 09:08:59;;;;;;;0.00;0.00;;;6.10;99.90;;;;;;5005035;28;20053;-61
2022/03/06 09:11:24;;;;;;;0.00;0.00;;;6.20;99.90;;;;;;5034815;28;20340;-61
2022/03/06 09:13:50;;;;;;;0.00;0.00;;;6.30;99.90;;;;;;5032918;28;20331;-62
2022/03/06 09:16:16;;;;;;;0.00;0.00;;;6.50;99.90;;;;;;5035747;28;20083;-62
2022/03/06 09:18:43;;;;;;;0.00;0.00;;;6.50;99.90;;;;;;5015348;28;20030;-61
2022/03/06 09:21:10;;;;;;;0.00;0.00;;;6.50;99.90;;;;;;5034425;28;20104;-61
2022/03/06 09:23:35;;;;;;;0.00;0.00;;;6.60;99.90;;;;;;5017449;28;20029;-61
2022/03/06 09:26:01;;;;;;;0.00;0.00;;;6.70;99.90;;;;;;5034620;28;20086;-61
2022/03/06 09:28:27;;;;;;;0.00;0.00;;;6.60;99.90;;;;;;5034045;28;20057;-61
2022/03/06 09:30:52;;;;;;;0.00;0.00;;;6.50;99.90;;;;;;5035261;28;20041;-61
2022/03/06 09:33:18;;;;;;;0.00;0.00;;;6.50;99.90;;;;;;5053431;28;20443;-61
2022/03/06 09:35:45;;;;;;;0.00;0.00;;;6.40;99.90;;;;;;5044801;28;20021;-59
2022/03/06 09:38:11;;;;;;;0.00;0.00;;;6.40;99.90;;;;;;5047557;28;20032;-61
2022/03/06 09:40:41;;;;;;;0.00;0.00;;;6.50;99.90;;;;;;5046951;28;20444;-62
2022/03/06 09:43:14;;;;;;;0.00;0.00;;;6.50;99.90;;;;;;5046200;28;20033;-61
2022/03/06 09:45:41;;;;;;;0.00;0.00;;;6.40;99.90;;;;;;5053157;28;20032;-61
2022/03/06 09:48:08;;;;;;;0.00;0.00;;;6.40;99.90;;;;;;5046116;28;20028;-61
2022/03/06 09:50:34;;;;;;;0.00;0.00;;;6.40;99.90;;;;;;5033876;28;20025;-60
2022/03/06 09:53:00;;;;;;;0.00;0.00;;;6.40;99.90;;;;;;5047768;28;20029;-62
2022/03/06 09:55:27;;;;;;;0.00;0.00;;;6.40;99.90;;;;;;5049746;28;20084;-62
2022/03/06 09:57:54;;;;;;;0.00;0.00;;;6.40;99.90;;;;;;5050958;28;20028;-62
2022/03/06 10:00:20;;;;;;;0.00;0.00;;;6.40;99.90;;;;;;5050984;28;20021;-61
2022/03/06 10:02:53;;;;;;;0.00;0.00;;;6.30;99.90;;;;;;5053503;28;20035;-62
2022/03/06 10:05:36;;;;;;;0.00;0.00;;;6.30;99.90;;;;;;5045050;28;20036;-60
2022/03/06 10:08:25;;;;;;;0.00;0.00;;;6.30;99.90;;;;;;5053311;28;20033;-62
2022/03/06 10:10:58;;;;;;;0.00;0.00;;;6.40;99.90;;;;;;5041643;28;20025;-62
2022/03/06 10:13:40;;;;;;;0.00;0.00;;;6.40;99.90;;;;;;5045167;28;20029;-58
2022/03/06 10:16:14;;;;;;;0.00;0.00;;;6.40;99.90;;;;;;5048637;28;20037;-61
2022/03/06 10:18:52;;;;;;;0.00;0.00;;;6.60;99.90;;;;;;5045838;28;20044;-61
2022/03/06 10:21:26;;;;;;;0.00;0.00;;;6.60;99.90;;;;;;5040838;28;20024;-62
2022/03/06 10:23:58;;;;;;;0.00;0.00;;;6.70;99.90;;;;;;5049243;28;20036;-61
2022/03/06 10:26:33;;;;;;;0.00;0.00;;;7.00;99.90;;;;;;5039907;28;20028;-60
2022/03/06 10:29:01;;;;;;;0.00;0.00;;;7.20;99.90;;;;;;5052969;28;20032;-62
2022/03/06 10:31:34;;;;;;;0.00;0.00;;;7.20;99.90;;;;;;5048935;28;20505;-60
2022/03/06 10:34:12;;;;;;;0.00;0.00;;;7.10;99.90;;;;;;5031417;28;20033;-60
2022/03/06 10:36:52;;;;;;;0.00;0.00;;;7.10;99.90;;;;;;5025932;28;20048;-62
2022/03/06 10:39:21;;;;;;;0.00;0.00;;;7.10;99.90;;;;;;5037022;28;20029;-61
2022/03/06 10:41:55;;;;;;;0.00;0.00;;;7.00;99.90;;;;;;5035362;28;20040;-62
2022/03/06 10:44:40;;;;;;;0.00;0.00;;;7.00;99.90;;;;;;5023685;28;20040;-63
2022/03/06 10:47:06;;;;;;;0.00;0.00;;;6.90;99.90;;;;;;5017327;28;20522;-61
2022/03/06 10:49:33;;;;;;;0.00;0.00;;;7.00;99.90;;;;;;5033320;28;20021;-62
2022/03/06 10:52:16;;;;;;;0.00;0.00;;;6.90;99.90;;;;;;5034015;28;20088;-61
2022/03/06 10:54:53;;;;;;;0.00;0.00;;;7.00;99.90;;;;;;5011071;28;20045;-62
2022/03/06 10:57:23;;;;;;;0.00;0.00;;;6.90;99.90;;;;;;5033440;28;20055;-62
2022/03/06 10:59:50;;;;;;;0.00;0.00;;;7.00;99.90;;;;;;5006848;28;20033;-61
2022/03/06 11:02:16;;;;;;;0.00;0.00;;;7.00;99.90;;;;;;5030387;28;20461;-61
2022/03/06 11:04:44;;;;;;;;;;;6.90;99.90;;;;;;5016041;28;20061;-61
2022/03/06 11:07:10;;;;;;;0.00;0.00;;;6.90;99.90;;;;;;5042232;28;19909;-62
2022/03/06 11:09:37;;;;;;;0.00;0.00;;;7.00;99.90;;;;;;5033642;28;20068;-61
2022/03/06 11:12:04;;;;;;;0.00;0.00;;;7.00;99.90;;;;;;5032108;28;20116;-62
2022/03/06 11:14:31;;;;;;;0.00;0.00;;;7.30;99.90;;;;;;5014388;28;20038;-62
2022/03/06 11:16:58;;;;;;;0.00;0.00;;;7.40;99.90;;;;;;5013459;28;20060;-61
2022/03/06 11:19:24;;;;;;;;;;;7.20;99.90;;;;;;5034446;28;20025;-63
2022/03/06 11:22:11;;;;;;;0.00;0.00;;;7.20;99.90;;;;;;5030218;28;19959;-62
2022/03/06 11:24:45;;;;;;;0.00;0.00;;;7.10;99.90;;;;;;5031193;28;20037;-62
2022/03/06 11:27:39;;;;;;;0.00;0.00;;;7.20;99.90;;;;;;5029025;28;20129;-61
2022/03/06 11:30:10;;;;;;;0.00;0.00;;;7.10;99.90;;;;;;5026979;28;20034;-61
2022/03/06 11:32:39;;;;;;;0.00;0.00;;;7.10;99.90;;;;;;5027120;28;20045;-61
2022/03/06 11:35:10;;;;;;;0.00;0.00;;;7.00;99.90;;;;;;5022465;28;20475;-62
2022/03/06 11:37:56;;;;;;;0.00;0.00;;;7.00;99.90;;;;;;5026173;28;20058;-61
2022/03/06 11:40:50;;;;;;;0.00;0.00;;;7.00;99.90;;;;;;5027014;28;20037;-61
2022/03/06 11:43:31;;;;;;;0.00;0.00;;;7.00;99.90;;;;;;5023278;28;20021;-62
2022/03/06 11:46:22;;;;;;;0.00;0.00;;;7.10;99.90;;;;;;5029982;28;20348;-64
2022/03/06 11:48:48;;;;;;;0.00;0.00;;;7.10;99.90;;;;;;5031874;28;20060;-63
2022/03/06 11:51:17;;;;;;;;;;;7.20;99.90;;;;;;5033791;28;20110;-63
2022/03/06 11:54:05;;;;;;;0.00;0.00;;;7.30;99.90;;;;;;5027721;28;19913;-62
2022/03/06 11:56:30;;;;;;;;;;;7.30;99.90;;;;;;5032204;28;20123;-61
2022/03/06 11:58:56;;;;;;;0.00;0.00;;;7.40;99.90;;;;;;5024473;28;19905;-62
2022/03/06 12:01:26;;;;;;;0.00;0.00;;;7.40;99.90;;;;;;5024099;28;20034;-60
2022/03/06 12:03:54;;;;;;;0.00;0.00;;;7.30;99.90;;;;;;5030874;28;20040;-62
2022/03/06 12:06:22;;;;;;;0.00;0.00;;;7.40;99.90;;;;;;5029053;28;20434;-62
2022/03/06 12:08:48;;;;;;;0.00;0.00;;;7.60;99.90;;;;;;5028484;28;20022;-63
2022/03/06 12:11:14;;;;;;;0.00;0.00;;;7.60;99.90;;;;;;5013355;28;20102;-61
2022/03/06 12:13:40;;;;;;;;;;;7.70;99.90;;;;;;5029415;28;20445;-63
2022/03/06 12:16:11;;;;;;;0.00;0.00;;;7.70;99.90;;;;;;5028965;28;20000;-61
2022/03/06 12:18:37;;;;;;;0.00;0.00;;;7.80;99.90;;;;;;5012751;28;20116;-61
2022/03/06 12:21:18;;;;;;;;;;;7.70;99.90;;;;;;5032136;28;20045;-61
2022/03/06 12:23:44;;;;;;;0.00;0.00;;;7.80;99.90;;;;;;5032244;28;19909;-61
2022/03/06 12:26:10;;;;;;;0.00;0.00;;;7.80;99.90;;;;;;5033476;28;20041;-69
2022/03/06 12:28:43;;;;;;;0.00;0.00;;;7.80;99.90;;;;;;5024107;28;20033;-62
2022/03/06 12:31:35;;;;;;;0.00;0.00;;;7.80;99.90;;;;;;5032268;28;20131;-63
2022/03/06 12:34:21;;;;;;;0.00;0.00;;;7.80;99.90;;;;;;5023143;28;20040;-62
2022/03/06 12:36:55;;;;;;;0.00;0.00;;;7.70;99.90;;;;;;5025805;28;20113;-61
2022/03/06 12:39:21;;;;;;;0.00;0.00;;;7.90;99.90;;;;;;5015125;28;20034;-61
2022/03/06 12:41:50;;;;;;;0.00;0.00;;;7.90;99.90;;;;;;5026393;28;20049;-62
2022/03/06 12:44:23;;;;;;;0.00;0.00;;;8.00;99.90;;;;;;5028413;28;20033;-63
2022/03/06 12:46:49;;;;;;;0.00;0.00;;;8.20;99.90;;;;;;5040668;28;20013;-63
2022/03/06 12:49:15;;;;;;;;;;;8.30;99.90;;;;;;5055655;28;20013;-61
2022/03/06 12:51:42;;;;;;;0.00;0.00;;;8.30;99.90;;;;;;5049328;28;19936;-63
2022/03/06 12:54:19;;;;;;;0.00;0.00;;;8.30;99.90;;;;;;5023443;28;20041;-63
2022/03/06 12:56:45;;;;;;;0.00;0.00;;;8.50;99.90;;;;;;5030207;28;20026;-62
2022/03/06 12:59:17;;;;;;;0.00;0.00;;;8.40;99.90;;;;;;5042537;28;20105;-62
2022/03/06 13:01:45;;;;;;;0.00;0.00;;;8.30;99.90;;;;;;5051199;28;20014;-62
2022/03/06 13:04:12;;;;;;;0.00;0.00;;;8.30;99.90;;;;;;5051978;28;20033;-62